sensor_id;sensor_type;location;lat;lon;timestamp;P1;durP1;ratioP1;P2;durP2;ratioP2
68168;SDS011;54981;50.206;15.978;2023-07-29T00:01:20;4.57;;;3.63;;
68168;SDS011;54981;50.206;15.978;2023-07-29T00:03:50;5.97;;;3.85;;
68168;SDS011;54981;50.206;15.978;2023-07-29T00:06:20;5.00;;;4.43;;
68168;SDS011;54981;50.206;15.978;2023-07-29T00:08:51;3.90;;;3.60;;
68168;SDS011;54981;50.206;15.978;2023-07-29T00:11:21;3.88;;;3.17;;
68168;SDS011;54981;50.206;15.978;2023-07-29T00:13:52;5.35;;;4.53;;
68168;SDS011;54981;50.206;15.978;2023-07-29T00:16:22;4.63;;;4.22;;
68168;SDS011;54981;50.206;15.978;2023-07-29T00:18:53;5.07;;;4.57;;
68168;SDS011;54981;50.206;15.978;2023-07-29T00:21:23;7.70;;;4.35;;
68168;SDS011;54981;50.206;15.978;2023-07-29T00:23:54;5.63;;;4.22;;
68168;SDS011;54981;50.206;15.978;2023-07-29T00:26:27;5.10;;;4.05;;
68168;SDS011;54981;50.206;15.978;2023-07-29T00:28:59;4.57;;;3.85;;
68168;SDS011;54981;50.206;15.978;2023-07-29T00:31:29;5.55;;;5.00;;
68168;SDS011;54981;50.206;15.978;2023-07-29T00:33:59;5.85;;;4.53;;
68168;SDS011;54981;50.206;15.978;2023-07-29T00:36:30;6.43;;;4.95;;
68168;SDS011;54981;50.206;15.978;2023-07-29T00:39:00;3.83;;;3.47;;
68168;SDS011;54981;50.206;15.978;2023-07-29T00:41:30;4.35;;;3.95;;
68168;SDS011;54981;50.206;15.978;2023-07-29T00:44:01;4.25;;;3.95;;
68168;SDS011;54981;50.206;15.978;2023-07-29T00:46:32;4.45;;;4.05;;
68168;SDS011;54981;50.206;15.978;2023-07-29T00:49:04;4.67;;;4.20;;
68168;SDS011;54981;50.206;15.978;2023-07-29T00:51:35;4.38;;;3.97;;
68168;SDS011;54981;50.206;15.978;2023-07-29T00:54:05;5.70;;;4.38;;
68168;SDS011;54981;50.206;15.978;2023-07-29T00:56:36;4.30;;;3.92;;
68168;SDS011;54981;50.206;15.978;2023-07-29T00:59:07;6.22;;;4.35;;
68168;SDS011;54981;50.206;15.978;2023-07-29T01:01:37;5.53;;;4.00;;
68168;SDS011;54981;50.206;15.978;2023-07-29T01:04:08;5.53;;;4.25;;
68168;SDS011;54981;50.206;15.978;2023-07-29T01:12:46;4.70;;;4.30;;
68168;SDS011;54981;50.206;15.978;2023-07-29T01:15:25;7.18;;;4.82;;
68168;SDS011;54981;50.206;15.978;2023-07-29T01:18:08;4.75;;;4.18;;
68168;SDS011;54981;50.206;15.978;2023-07-29T01:20:45;7.82;;;4.90;;
68168;SDS011;54981;50.206;15.978;2023-07-29T01:23:23;5.05;;;4.50;;
68168;SDS011;54981;50.206;15.978;2023-07-29T01:25:54;5.18;;;4.40;;
68168;SDS011;54981;50.206;15.978;2023-07-29T01:28:25;4.93;;;4.10;;
68168;SDS011;54981;50.206;15.978;2023-07-29T01:30:57;6.93;;;5.10;;
68168;SDS011;54981;50.206;15.978;2023-07-29T01:33:44;6.07;;;4.00;;
68168;SDS011;54981;50.206;15.978;2023-07-29T01:36:23;6.28;;;5.00;;
68168;SDS011;54981;50.206;15.978;2023-07-29T01:38:57;5.38;;;4.38;;
68168;SDS011;54981;50.206;15.978;2023-07-29T01:41:29;5.60;;;4.95;;
68168;SDS011;54981;50.206;15.978;2023-07-29T01:44:00;7.10;;;5.03;;
68168;SDS011;54981;50.206;15.978;2023-07-29T01:46:35;5.88;;;4.68;;
68168;SDS011;54981;50.206;15.978;2023-07-29T01:49:06;5.05;;;4.53;;
68168;SDS011;54981;50.206;15.978;2023-07-29T01:51:37;6.53;;;5.18;;
68168;SDS011;54981;50.206;15.978;2023-07-29T01:54:07;6.97;;;4.78;;
68168;SDS011;54981;50.206;15.978;2023-07-29T01:56:38;7.03;;;5.45;;
68168;SDS011;54981;50.206;15.978;2023-07-29T01:59:08;5.18;;;4.70;;
68168;SDS011;54981;50.206;15.978;2023-07-29T02:01:39;6.32;;;4.88;;
68168;SDS011;54981;50.206;15.978;2023-07-29T02:04:09;6.25;;;5.47;;
68168;SDS011;54981;50.206;15.978;2023-07-29T02:06:39;6.35;;;5.70;;
68168;SDS011;54981;50.206;15.978;2023-07-29T02:09:10;5.50;;;4.72;;
68168;SDS011;54981;50.206;15.978;2023-07-29T02:11:40;5.88;;;5.00;;
68168;SDS011;54981;50.206;15.978;2023-07-29T02:14:10;6.43;;;4.97;;
68168;SDS011;54981;50.206;15.978;2023-07-29T02:16:41;5.07;;;4.63;;
68168;SDS011;54981;50.206;15.978;2023-07-29T02:19:11;6.07;;;5.55;;
68168;SDS011;54981;50.206;15.978;2023-07-29T02:21:42;6.50;;;5.20;;
68168;SDS011;54981;50.206;15.978;2023-07-29T02:24:12;5.63;;;5.03;;
68168;SDS011;54981;50.206;15.978;2023-07-29T02:26:43;5.95;;;5.45;;
68168;SDS011;54981;50.206;15.978;2023-07-29T02:29:13;5.55;;;4.82;;
68168;SDS011;54981;50.206;15.978;2023-07-29T02:31:43;6.07;;;5.47;;
68168;SDS011;54981;50.206;15.978;2023-07-29T02:34:14;5.68;;;5.28;;
68168;SDS011;54981;50.206;15.978;2023-07-29T02:36:44;5.55;;;4.90;;
68168;SDS011;54981;50.206;15.978;2023-07-29T02:39:15;6.10;;;5.38;;
68168;SDS011;54981;50.206;15.978;2023-07-29T02:41:46;6.18;;;5.45;;
68168;SDS011;54981;50.206;15.978;2023-07-29T02:44:16;6.30;;;4.93;;
68168;SDS011;54981;50.206;15.978;2023-07-29T02:46:46;5.70;;;5.18;;
68168;SDS011;54981;50.206;15.978;2023-07-29T02:49:17;5.10;;;4.53;;
68168;SDS011;54981;50.206;15.978;2023-07-29T02:51:47;7.85;;;5.45;;
68168;SDS011;54981;50.206;15.978;2023-07-29T02:54:18;6.32;;;5.72;;
68168;SDS011;54981;50.206;15.978;2023-07-29T02:56:49;8.25;;;5.28;;
68168;SDS011;54981;50.206;15.978;2023-07-29T02:59:20;8.75;;;5.72;;
68168;SDS011;54981;50.206;15.978;2023-07-29T03:01:50;6.88;;;5.68;;
68168;SDS011;54981;50.206;15.978;2023-07-29T03:04:21;5.88;;;5.28;;
68168;SDS011;54981;50.206;15.978;2023-07-29T03:06:52;5.60;;;5.07;;
68168;SDS011;54981;50.206;15.978;2023-07-29T03:09:22;6.07;;;5.55;;
68168;SDS011;54981;50.206;15.978;2023-07-29T03:11:52;5.70;;;5.20;;
68168;SDS011;54981;50.206;15.978;2023-07-29T03:14:24;6.93;;;4.95;;
68168;SDS011;54981;50.206;15.978;2023-07-29T03:16:55;6.60;;;6.10;;
68168;SDS011;54981;50.206;15.978;2023-07-29T03:19:25;6.15;;;5.55;;
68168;SDS011;54981;50.206;15.978;2023-07-29T03:21:55;5.68;;;5.25;;
68168;SDS011;54981;50.206;15.978;2023-07-29T03:24:26;7.75;;;5.00;;
68168;SDS011;54981;50.206;15.978;2023-07-29T03:26:56;7.60;;;5.68;;
68168;SDS011;54981;50.206;15.978;2023-07-29T03:29:26;5.50;;;4.97;;
68168;SDS011;54981;50.206;15.978;2023-07-29T03:31:57;5.65;;;5.15;;
68168;SDS011;54981;50.206;15.978;2023-07-29T03:34:27;6.10;;;5.50;;
68168;SDS011;54981;50.206;15.978;2023-07-29T03:36:58;6.93;;;6.32;;
68168;SDS011;54981;50.206;15.978;2023-07-29T03:39:29;6.72;;;6.13;;
68168;SDS011;54981;50.206;15.978;2023-07-29T03:41:59;6.25;;;5.75;;
68168;SDS011;54981;50.206;15.978;2023-07-29T03:44:30;8.55;;;7.05;;
68168;SDS011;54981;50.206;15.978;2023-07-29T03:47:01;6.90;;;5.05;;
68168;SDS011;54981;50.206;15.978;2023-07-29T03:49:31;7.22;;;5.43;;
68168;SDS011;54981;50.206;15.978;2023-07-29T03:52:02;6.00;;;5.40;;
68168;SDS011;54981;50.206;15.978;2023-07-29T03:54:32;7.38;;;5.40;;
68168;SDS011;54981;50.206;15.978;2023-07-29T03:57:03;6.30;;;5.63;;
68168;SDS011;54981;50.206;15.978;2023-07-29T03:59:33;6.43;;;5.43;;
68168;SDS011;54981;50.206;15.978;2023-07-29T04:02:04;7.30;;;5.25;;
68168;SDS011;54981;50.206;15.978;2023-07-29T04:04:34;7.45;;;5.15;;
68168;SDS011;54981;50.206;15.978;2023-07-29T04:07:05;6.13;;;5.57;;
68168;SDS011;54981;50.206;15.978;2023-07-29T04:09:35;5.95;;;5.25;;
68168;SDS011;54981;50.206;15.978;2023-07-29T04:12:06;6.13;;;5.28;;
68168;SDS011;54981;50.206;15.978;2023-07-29T04:14:36;6.30;;;5.70;;
68168;SDS011;54981;50.206;15.978;2023-07-29T04:17:07;5.93;;;5.00;;
68168;SDS011;54981;50.206;15.978;2023-07-29T04:19:37;6.10;;;5.47;;
68168;SDS011;54981;50.206;15.978;2023-07-29T04:22:08;6.05;;;5.45;;
68168;SDS011;54981;50.206;15.978;2023-07-29T04:24:38;6.78;;;5.80;;
68168;SDS011;54981;50.206;15.978;2023-07-29T04:27:08;7.22;;;6.45;;
68168;SDS011;54981;50.206;15.978;2023-07-29T04:29:39;6.25;;;5.65;;
68168;SDS011;54981;50.206;15.978;2023-07-29T04:32:09;6.43;;;5.82;;
68168;SDS011;54981;50.206;15.978;2023-07-29T04:34:40;6.78;;;6.22;;
68168;SDS011;54981;50.206;15.978;2023-07-29T04:37:10;7.80;;;6.28;;
68168;SDS011;54981;50.206;15.978;2023-07-29T04:39:40;7.10;;;6.50;;
68168;SDS011;54981;50.206;15.978;2023-07-29T04:42:11;7.00;;;6.40;;
68168;SDS011;54981;50.206;15.978;2023-07-29T04:44:41;6.85;;;6.22;;
68168;SDS011;54981;50.206;15.978;2023-07-29T04:47:13;6.35;;;5.82;;
68168;SDS011;54981;50.206;15.978;2023-07-29T04:49:43;6.43;;;5.93;;
68168;SDS011;54981;50.206;15.978;2023-07-29T04:52:14;8.38;;;5.88;;
68168;SDS011;54981;50.206;15.978;2023-07-29T04:54:45;7.07;;;5.90;;
68168;SDS011;54981;50.206;15.978;2023-07-29T04:57:15;6.70;;;6.10;;
68168;SDS011;54981;50.206;15.978;2023-07-29T04:59:45;6.47;;;5.55;;
68168;SDS011;54981;50.206;15.978;2023-07-29T05:02:16;8.00;;;5.97;;
68168;SDS011;54981;50.206;15.978;2023-07-29T05:04:46;5.78;;;5.28;;
68168;SDS011;54981;50.206;15.978;2023-07-29T05:07:16;6.20;;;5.60;;
68168;SDS011;54981;50.206;15.978;2023-07-29T05:09:47;6.28;;;5.68;;
68168;SDS011;54981;50.206;15.978;2023-07-29T05:12:17;6.88;;;5.22;;
68168;SDS011;54981;50.206;15.978;2023-07-29T05:14:48;5.82;;;5.32;;
68168;SDS011;54981;50.206;15.978;2023-07-29T05:17:18;5.35;;;4.85;;
68168;SDS011;54981;50.206;15.978;2023-07-29T05:19:48;5.47;;;4.97;;
68168;SDS011;54981;50.206;15.978;2023-07-29T05:22:19;5.50;;;4.88;;
68168;SDS011;54981;50.206;15.978;2023-07-29T05:24:49;5.25;;;4.75;;
68168;SDS011;54981;50.206;15.978;2023-07-29T05:27:20;5.20;;;4.70;;
68168;SDS011;54981;50.206;15.978;2023-07-29T05:29:50;5.35;;;4.95;;
68168;SDS011;54981;50.206;15.978;2023-07-29T05:32:20;7.38;;;5.30;;
68168;SDS011;54981;50.206;15.978;2023-07-29T05:34:51;5.70;;;5.10;;
68168;SDS011;54981;50.206;15.978;2023-07-29T05:37:21;6.15;;;4.82;;
68168;SDS011;54981;50.206;15.978;2023-07-29T05:39:51;5.60;;;5.10;;
68168;SDS011;54981;50.206;15.978;2023-07-29T05:42:22;5.28;;;4.78;;
68168;SDS011;54981;50.206;15.978;2023-07-29T05:44:52;10.70;;;4.40;;
68168;SDS011;54981;50.206;15.978;2023-07-29T05:47:22;6.35;;;4.95;;
68168;SDS011;54981;50.206;15.978;2023-07-29T05:49:53;5.65;;;5.15;;
68168;SDS011;54981;50.206;15.978;2023-07-29T05:52:24;5.30;;;4.57;;
68168;SDS011;54981;50.206;15.978;2023-07-29T05:54:54;5.22;;;4.57;;
68168;SDS011;54981;50.206;15.978;2023-07-29T05:57:25;4.45;;;4.05;;
68168;SDS011;54981;50.206;15.978;2023-07-29T05:59:55;5.20;;;4.80;;
68168;SDS011;54981;50.206;15.978;2023-07-29T06:02:26;4.30;;;3.90;;
68168;SDS011;54981;50.206;15.978;2023-07-29T06:04:56;4.50;;;3.88;;
68168;SDS011;54981;50.206;15.978;2023-07-29T06:07:27;4.75;;;4.25;;
68168;SDS011;54981;50.206;15.978;2023-07-29T06:09:59;5.40;;;4.33;;
68168;SDS011;54981;50.206;15.978;2023-07-29T06:12:30;3.72;;;3.40;;
68168;SDS011;54981;50.206;15.978;2023-07-29T06:15:00;4.30;;;3.97;;
68168;SDS011;54981;50.206;15.978;2023-07-29T06:17:31;4.18;;;3.78;;
68168;SDS011;54981;50.206;15.978;2023-07-29T06:20:01;3.72;;;3.25;;
68168;SDS011;54981;50.206;15.978;2023-07-29T06:22:32;3.35;;;3.05;;
68168;SDS011;54981;50.206;15.978;2023-07-29T06:25:03;4.15;;;3.75;;
68168;SDS011;54981;50.206;15.978;2023-07-29T06:27:33;4.10;;;3.80;;
68168;SDS011;54981;50.206;15.978;2023-07-29T06:30:04;4.95;;;3.15;;
68168;SDS011;54981;50.206;15.978;2023-07-29T06:32:36;4.50;;;3.60;;
68168;SDS011;54981;50.206;15.978;2023-07-29T06:35:06;4.97;;;4.57;;
68168;SDS011;54981;50.206;15.978;2023-07-29T06:37:37;4.10;;;3.70;;
68168;SDS011;54981;50.206;15.978;2023-07-29T06:40:07;7.68;;;6.93;;
68168;SDS011;54981;50.206;15.978;2023-07-29T06:42:38;5.05;;;4.65;;
68168;SDS011;54981;50.206;15.978;2023-07-29T06:45:08;9.65;;;7.15;;
68168;SDS011;54981;50.206;15.978;2023-07-29T06:47:40;6.68;;;4.95;;
68168;SDS011;54981;50.206;15.978;2023-07-29T06:50:10;6.32;;;4.47;;
68168;SDS011;54981;50.206;15.978;2023-07-29T06:52:40;4.57;;;4.18;;
68168;SDS011;54981;50.206;15.978;2023-07-29T06:55:11;3.55;;;3.25;;
68168;SDS011;54981;50.206;15.978;2023-07-29T06:57:41;3.42;;;3.13;;
68168;SDS011;54981;50.206;15.978;2023-07-29T07:00:12;3.75;;;3.38;;
68168;SDS011;54981;50.206;15.978;2023-07-29T07:02:42;3.40;;;3.10;;
68168;SDS011;54981;50.206;15.978;2023-07-29T07:05:13;4.38;;;3.10;;
68168;SDS011;54981;50.206;15.978;2023-07-29T07:07:43;3.45;;;3.25;;
68168;SDS011;54981;50.206;15.978;2023-07-29T07:10:14;3.17;;;2.97;;
68168;SDS011;54981;50.206;15.978;2023-07-29T07:12:44;3.60;;;3.30;;
68168;SDS011;54981;50.206;15.978;2023-07-29T07:15:15;4.03;;;3.00;;
68168;SDS011;54981;50.206;15.978;2023-07-29T07:17:45;3.88;;;2.78;;
68168;SDS011;54981;50.206;15.978;2023-07-29T07:20:15;3.67;;;3.33;;
68168;SDS011;54981;50.206;15.978;2023-07-29T07:22:46;3.22;;;2.83;;
68168;SDS011;54981;50.206;15.978;2023-07-29T07:25:16;3.10;;;2.80;;
68168;SDS011;54981;50.206;15.978;2023-07-29T07:27:47;3.25;;;2.95;;
68168;SDS011;54981;50.206;15.978;2023-07-29T07:30:18;3.65;;;3.28;;
68168;SDS011;54981;50.206;15.978;2023-07-29T07:32:48;2.97;;;2.78;;
68168;SDS011;54981;50.206;15.978;2023-07-29T07:35:20;4.70;;;3.78;;
68168;SDS011;54981;50.206;15.978;2023-07-29T07:37:51;4.35;;;3.95;;
68168;SDS011;54981;50.206;15.978;2023-07-29T07:40:21;4.75;;;2.95;;
68168;SDS011;54981;50.206;15.978;2023-07-29T07:42:51;5.03;;;2.50;;
68168;SDS011;54981;50.206;15.978;2023-07-29T07:45:22;2.83;;;2.63;;
68168;SDS011;54981;50.206;15.978;2023-07-29T07:47:52;2.70;;;2.50;;
68168;SDS011;54981;50.206;15.978;2023-07-29T07:50:23;2.80;;;2.58;;
68168;SDS011;54981;50.206;15.978;2023-07-29T07:52:54;3.13;;;2.63;;
68168;SDS011;54981;50.206;15.978;2023-07-29T07:55:24;2.90;;;2.40;;
68168;SDS011;54981;50.206;15.978;2023-07-29T07:57:55;3.08;;;2.60;;
68168;SDS011;54981;50.206;15.978;2023-07-29T08:00:25;2.92;;;2.67;;
68168;SDS011;54981;50.206;15.978;2023-07-29T08:02:56;3.15;;;2.60;;
68168;SDS011;54981;50.206;15.978;2023-07-29T08:05:26;3.33;;;2.72;;
68168;SDS011;54981;50.206;15.978;2023-07-29T08:07:56;2.60;;;2.40;;
68168;SDS011;54981;50.206;15.978;2023-07-29T08:10:27;3.70;;;3.13;;
68168;SDS011;54981;50.206;15.978;2023-07-29T08:12:57;3.33;;;2.97;;
68168;SDS011;54981;50.206;15.978;2023-07-29T08:15:28;3.28;;;2.80;;
68168;SDS011;54981;50.206;15.978;2023-07-29T08:17:58;3.10;;;2.72;;
68168;SDS011;54981;50.206;15.978;2023-07-29T08:20:28;3.00;;;2.80;;
68168;SDS011;54981;50.206;15.978;2023-07-29T08:22:59;6.57;;;3.38;;
68168;SDS011;54981;50.206;15.978;2023-07-29T08:25:29;3.00;;;2.70;;
68168;SDS011;54981;50.206;15.978;2023-07-29T08:27:59;3.72;;;3.30;;
68168;SDS011;54981;50.206;15.978;2023-07-29T08:30:30;4.25;;;3.40;;
68168;SDS011;54981;50.206;15.978;2023-07-29T08:33:00;4.03;;;2.90;;
68168;SDS011;54981;50.206;15.978;2023-07-29T08:35:30;3.50;;;3.20;;
68168;SDS011;54981;50.206;15.978;2023-07-29T08:38:01;3.60;;;2.88;;
68168;SDS011;54981;50.206;15.978;2023-07-29T08:40:32;3.63;;;3.13;;
68168;SDS011;54981;50.206;15.978;2023-07-29T08:43:05;2.33;;;2.13;;
68168;SDS011;54981;50.206;15.978;2023-07-29T08:45:36;3.47;;;2.80;;
68168;SDS011;54981;50.206;15.978;2023-07-29T08:48:10;3.45;;;2.50;;
68168;SDS011;54981;50.206;15.978;2023-07-29T08:50:41;2.75;;;2.50;;
68168;SDS011;54981;50.206;15.978;2023-07-29T08:53:12;2.50;;;2.30;;
68168;SDS011;54981;50.206;15.978;2023-07-29T08:55:43;2.50;;;2.30;;
68168;SDS011;54981;50.206;15.978;2023-07-29T08:58:13;2.78;;;2.58;;
68168;SDS011;54981;50.206;15.978;2023-07-29T09:00:44;2.55;;;2.35;;
68168;SDS011;54981;50.206;15.978;2023-07-29T09:03:16;2.40;;;2.20;;
68168;SDS011;54981;50.206;15.978;2023-07-29T09:05:47;3.47;;;1.90;;
68168;SDS011;54981;50.206;15.978;2023-07-29T09:08:17;2.47;;;1.80;;
68168;SDS011;54981;50.206;15.978;2023-07-29T09:10:48;1.95;;;1.85;;
68168;SDS011;54981;50.206;15.978;2023-07-29T09:13:19;2.40;;;1.50;;
68168;SDS011;54981;50.206;15.978;2023-07-29T09:15:49;1.50;;;1.40;;
68168;SDS011;54981;50.206;15.978;2023-07-29T09:18:25;1.77;;;1.58;;
68168;SDS011;54981;50.206;15.978;2023-07-29T09:20:58;2.25;;;1.98;;
68168;SDS011;54981;50.206;15.978;2023-07-29T09:23:42;1.88;;;1.60;;
68168;SDS011;54981;50.206;15.978;2023-07-29T09:26:13;1.60;;;1.50;;
68168;SDS011;54981;50.206;15.978;2023-07-29T09:28:43;1.85;;;1.65;;
68168;SDS011;54981;50.206;15.978;2023-07-29T09:31:20;1.60;;;1.50;;
68168;SDS011;54981;50.206;15.978;2023-07-29T09:33:59;2.03;;;1.92;;
68168;SDS011;54981;50.206;15.978;2023-07-29T09:36:31;2.15;;;2.00;;
68168;SDS011;54981;50.206;15.978;2023-07-29T09:39:02;2.22;;;1.83;;
68168;SDS011;54981;50.206;15.978;2023-07-29T09:41:33;1.90;;;1.75;;
68168;SDS011;54981;50.206;15.978;2023-07-29T09:44:04;1.60;;;1.50;;
68168;SDS011;54981;50.206;15.978;2023-07-29T09:46:36;1.52;;;1.42;;
68168;SDS011;54981;50.206;15.978;2023-07-29T09:49:07;1.85;;;1.75;;
68168;SDS011;54981;50.206;15.978;2023-07-29T09:51:38;1.83;;;1.73;;
68168;SDS011;54981;50.206;15.978;2023-07-29T09:54:10;1.60;;;1.50;;
68168;SDS011;54981;50.206;15.978;2023-07-29T09:56:42;2.17;;;1.48;;
68168;SDS011;54981;50.206;15.978;2023-07-29T09:59:14;1.50;;;1.40;;
68168;SDS011;54981;50.206;15.978;2023-07-29T10:01:50;1.92;;;1.63;;
68168;SDS011;54981;50.206;15.978;2023-07-29T10:04:20;2.15;;;1.95;;
68168;SDS011;54981;50.206;15.978;2023-07-29T10:06:51;1.67;;;1.58;;
68168;SDS011;54981;50.206;15.978;2023-07-29T10:09:22;1.95;;;1.80;;
68168;SDS011;54981;50.206;15.978;2023-07-29T10:11:53;2.17;;;2.00;;
68168;SDS011;54981;50.206;15.978;2023-07-29T10:14:25;3.22;;;1.90;;
68168;SDS011;54981;50.206;15.978;2023-07-29T10:19:29;2.35;;;1.67;;
68168;SDS011;54981;50.206;15.978;2023-07-29T10:22:01;2.00;;;1.88;;
68168;SDS011;54981;50.206;15.978;2023-07-29T10:24:33;1.73;;;1.63;;
68168;SDS011;54981;50.206;15.978;2023-07-29T10:27:05;1.90;;;1.70;;
68168;SDS011;54981;50.206;15.978;2023-07-29T10:32:09;2.80;;;1.67;;
68168;SDS011;54981;50.206;15.978;2023-07-29T10:34:41;2.55;;;1.80;;
68168;SDS011;54981;50.206;15.978;2023-07-29T10:37:12;1.70;;;1.60;;
68168;SDS011;54981;50.206;15.978;2023-07-29T10:39:51;2.33;;;1.70;;
68168;SDS011;54981;50.206;15.978;2023-07-29T10:42:23;2.08;;;1.85;;
68168;SDS011;54981;50.206;15.978;2023-07-29T10:44:53;2.05;;;1.70;;
68168;SDS011;54981;50.206;15.978;2023-07-29T10:47:25;2.03;;;1.40;;
68168;SDS011;54981;50.206;15.978;2023-07-29T10:49:59;2.50;;;1.50;;
68168;SDS011;54981;50.206;15.978;2023-07-29T10:55:22;1.75;;;1.52;;
68168;SDS011;54981;50.206;15.978;2023-07-29T10:58:14;2.35;;;1.83;;
68168;SDS011;54981;50.206;15.978;2023-07-29T11:00:56;1.58;;;1.48;;
68168;SDS011;54981;50.206;15.978;2023-07-29T11:03:26;2.10;;;1.83;;
68168;SDS011;54981;50.206;15.978;2023-07-29T11:05:59;2.78;;;1.58;;
68168;SDS011;54981;50.206;15.978;2023-07-29T11:08:34;2.35;;;1.65;;
68168;SDS011;54981;50.206;15.978;2023-07-29T11:11:06;2.03;;;1.70;;
68168;SDS011;54981;50.206;15.978;2023-07-29T11:13:38;2.80;;;1.60;;
68168;SDS011;54981;50.206;15.978;2023-07-29T11:16:09;1.50;;;1.40;;
68168;SDS011;54981;50.206;15.978;2023-07-29T11:18:40;1.58;;;1.35;;
68168;SDS011;54981;50.206;15.978;2023-07-29T11:21:12;1.98;;;1.55;;
68168;SDS011;54981;50.206;15.978;2023-07-29T11:23:44;1.55;;;1.40;;
68168;SDS011;54981;50.206;15.978;2023-07-29T11:26:14;1.60;;;1.50;;
68168;SDS011;54981;50.206;15.978;2023-07-29T11:28:45;5.05;;;1.77;;
68168;SDS011;54981;50.206;15.978;2023-07-29T11:31:16;2.10;;;1.58;;
68168;SDS011;54981;50.206;15.978;2023-07-29T11:33:47;1.98;;;1.73;;
68168;SDS011;54981;50.206;15.978;2023-07-29T11:36:18;1.80;;;1.70;;
68168;SDS011;54981;50.206;15.978;2023-07-29T11:38:49;1.85;;;1.75;;
68168;SDS011;54981;50.206;15.978;2023-07-29T11:41:20;3.28;;;1.95;;
68168;SDS011;54981;50.206;15.978;2023-07-29T11:43:52;2.28;;;1.60;;
68168;SDS011;54981;50.206;15.978;2023-07-29T11:46:22;3.25;;;1.50;;
68168;SDS011;54981;50.206;15.978;2023-07-29T11:48:55;1.83;;;1.73;;
68168;SDS011;54981;50.206;15.978;2023-07-29T11:53:56;2.07;;;1.87;;
68168;SDS011;54981;50.206;15.978;2023-07-29T11:56:26;1.80;;;1.70;;
68168;SDS011;54981;50.206;15.978;2023-07-29T11:58:57;3.95;;;2.55;;
68168;SDS011;54981;50.206;15.978;2023-07-29T12:01:27;1.77;;;1.55;;
68168;SDS011;54981;50.206;15.978;2023-07-29T12:03:58;1.90;;;1.70;;
68168;SDS011;54981;50.206;15.978;2023-07-29T12:06:30;2.20;;;1.63;;
68168;SDS011;54981;50.206;15.978;2023-07-29T12:09:01;3.80;;;1.90;;
68168;SDS011;54981;50.206;15.978;2023-07-29T12:11:31;1.80;;;1.70;;
68168;SDS011;54981;50.206;15.978;2023-07-29T12:14:02;1.80;;;1.60;;
68168;SDS011;54981;50.206;15.978;2023-07-29T12:16:39;1.60;;;1.50;;
68168;SDS011;54981;50.206;15.978;2023-07-29T12:19:14;1.67;;;1.33;;
68168;SDS011;54981;50.206;15.978;2023-07-29T12:21:45;1.50;;;1.40;;
68168;SDS011;54981;50.206;15.978;2023-07-29T12:24:15;1.80;;;1.70;;
68168;SDS011;54981;50.206;15.978;2023-07-29T12:26:46;2.28;;;1.67;;
68168;SDS011;54981;50.206;15.978;2023-07-29T12:29:17;2.78;;;1.60;;
68168;SDS011;54981;50.206;15.978;2023-07-29T12:31:58;1.88;;;1.75;;
68168;SDS011;54981;50.206;15.978;2023-07-29T12:34:30;2.20;;;1.65;;
68168;SDS011;54981;50.206;15.978;2023-07-29T12:37:02;2.15;;;1.98;;
68168;SDS011;54981;50.206;15.978;2023-07-29T12:39:35;2.05;;;1.88;;
68168;SDS011;54981;50.206;15.978;2023-07-29T12:42:09;2.42;;;2.10;;
68168;SDS011;54981;50.206;15.978;2023-07-29T12:44:40;2.55;;;2.10;;
68168;SDS011;54981;50.206;15.978;2023-07-29T12:47:10;3.15;;;1.65;;
68168;SDS011;54981;50.206;15.978;2023-07-29T12:49:41;2.28;;;1.75;;
68168;SDS011;54981;50.206;15.978;2023-07-29T12:52:12;1.80;;;1.70;;
68168;SDS011;54981;50.206;15.978;2023-07-29T12:54:42;1.75;;;1.65;;
68168;SDS011;54981;50.206;15.978;2023-07-29T12:57:14;1.80;;;1.70;;
68168;SDS011;54981;50.206;15.978;2023-07-29T12:59:44;1.83;;;1.73;;
68168;SDS011;54981;50.206;15.978;2023-07-29T13:02:14;2.08;;;1.67;;
68168;SDS011;54981;50.206;15.978;2023-07-29T13:04:45;3.28;;;1.90;;
68168;SDS011;54981;50.206;15.978;2023-07-29T13:07:15;4.25;;;1.80;;
68168;SDS011;54981;50.206;15.978;2023-07-29T13:09:46;2.95;;;2.20;;
68168;SDS011;54981;50.206;15.978;2023-07-29T13:12:16;2.67;;;2.22;;
68168;SDS011;54981;50.206;15.978;2023-07-29T13:14:46;1.88;;;1.77;;
68168;SDS011;54981;50.206;15.978;2023-07-29T13:17:17;2.65;;;2.40;;
68168;SDS011;54981;50.206;15.978;2023-07-29T13:21:05;6.95;;;1.90;;
68168;SDS011;54981;50.206;15.978;2023-07-29T13:23:36;6.35;;;3.35;;
68168;SDS011;54981;50.206;15.978;2023-07-29T13:26:44;10.93;;;3.85;;
68168;SDS011;54981;50.206;15.978;2023-07-29T13:29:14;11.75;;;4.20;;
68168;SDS011;54981;50.206;15.978;2023-07-29T13:31:44;10.23;;;4.97;;
68168;SDS011;54981;50.206;15.978;2023-07-29T13:34:15;5.15;;;4.25;;
68168;SDS011;54981;50.206;15.978;2023-07-29T13:36:45;7.78;;;4.13;;
68168;SDS011;54981;50.206;15.978;2023-07-29T13:39:15;7.35;;;4.20;;
68168;SDS011;54981;50.206;15.978;2023-07-29T13:41:46;5.75;;;3.50;;
68168;SDS011;54981;50.206;15.978;2023-07-29T13:44:16;4.43;;;3.85;;
68168;SDS011;54981;50.206;15.978;2023-07-29T13:46:46;4.50;;;4.10;;
68168;SDS011;54981;50.206;15.978;2023-07-29T13:49:17;5.75;;;3.90;;
68168;SDS011;54981;50.206;15.978;2023-07-29T13:51:47;6.72;;;3.90;;
68168;SDS011;54981;50.206;15.978;2023-07-29T13:54:17;5.53;;;4.05;;
68168;SDS011;54981;50.206;15.978;2023-07-29T13:56:48;7.20;;;4.38;;
68168;SDS011;54981;50.206;15.978;2023-07-29T13:59:18;5.78;;;3.95;;
68168;SDS011;54981;50.206;15.978;2023-07-29T14:01:48;7.57;;;4.03;;
68168;SDS011;54981;50.206;15.978;2023-07-29T14:04:19;5.28;;;4.15;;
68168;SDS011;54981;50.206;15.978;2023-07-29T14:06:49;6.05;;;4.00;;
68168;SDS011;54981;50.206;15.978;2023-07-29T14:09:19;7.60;;;3.88;;
68168;SDS011;54981;50.206;15.978;2023-07-29T14:11:50;8.60;;;4.30;;
68168;SDS011;54981;50.206;15.978;2023-07-29T14:14:20;6.60;;;4.32;;
68168;SDS011;54981;50.206;15.978;2023-07-29T14:16:50;9.02;;;4.28;;
68168;SDS011;54981;50.206;15.978;2023-07-29T14:19:21;7.72;;;4.72;;
68168;SDS011;54981;50.206;15.978;2023-07-29T14:21:51;7.03;;;3.72;;
68168;SDS011;54981;50.206;15.978;2023-07-29T14:24:22;6.18;;;3.67;;
68168;SDS011;54981;50.206;15.978;2023-07-29T14:26:52;4.28;;;3.10;;
68168;SDS011;54981;50.206;15.978;2023-07-29T14:29:23;5.75;;;4.00;;
68168;SDS011;54981;50.206;15.978;2023-07-29T14:31:53;5.82;;;3.50;;
68168;SDS011;54981;50.206;15.978;2023-07-29T14:34:23;6.05;;;3.30;;
68168;SDS011;54981;50.206;15.978;2023-07-29T14:36:54;6.63;;;3.15;;
68168;SDS011;54981;50.206;15.978;2023-07-29T14:39:24;3.67;;;2.83;;
68168;SDS011;54981;50.206;15.978;2023-07-29T14:41:54;5.25;;;3.20;;
68168;SDS011;54981;50.206;15.978;2023-07-29T14:44:25;5.15;;;3.03;;
68168;SDS011;54981;50.206;15.978;2023-07-29T14:46:55;3.53;;;2.90;;
68168;SDS011;54981;50.206;15.978;2023-07-29T14:49:26;6.25;;;3.10;;
68168;SDS011;54981;50.206;15.978;2023-07-29T14:51:56;5.30;;;3.22;;
68168;SDS011;54981;50.206;15.978;2023-07-29T14:54:26;21.65;;;16.48;;
68168;SDS011;54981;50.206;15.978;2023-07-29T14:56:57;8.48;;;5.75;;
68168;SDS011;54981;50.206;15.978;2023-07-29T14:59:27;6.88;;;3.35;;
68168;SDS011;54981;50.206;15.978;2023-07-29T15:01:57;6.80;;;4.25;;
68168;SDS011;54981;50.206;15.978;2023-07-29T15:04:28;6.68;;;4.10;;
68168;SDS011;54981;50.206;15.978;2023-07-29T15:06:58;8.23;;;5.22;;
68168;SDS011;54981;50.206;15.978;2023-07-29T15:09:29;6.25;;;3.88;;
68168;SDS011;54981;50.206;15.978;2023-07-29T15:11:59;4.20;;;2.70;;
68168;SDS011;54981;50.206;15.978;2023-07-29T15:14:29;4.25;;;3.15;;